Vienna, Austria
Current Conditions -  °F | °C
As of 7:20 PM on Thursday 18 Dec 2014 (Local Time) from LOWW Reporting Station
Broken Clouds Broken Clouds  
Wind Chill: 44°   Ceiling: 2800
Heat Index: 46°   Visibility: 6mi
Dew Point: 43°   Wind: 6mph
Humidity: 87%   Direction: 170°S
Pressure: 30.03"   Gusts: NA
Location:  48.22°N, 16.37°E
Report Text: LOWW 181720Z 17005KT 9999 BKN028 08/06 Q1017 WS ALL RWY NOSIG
Loading
Personal Weather Stations






























Interactive Weather Map New forecast layout! Learn more

10-Day Weather Forecast

Advertisements
Track Severe Weather on mobile